HL7101 EKVG-EGPB
Flight info
| Callsign | HL7101 |
|---|---|
| Flight time | 1h 5m |
| Altitude | 27000 |
| Route | EKVG ODEV2N ODEVA DCT H6105 DCT PEMOS DCT EKPOG DCT SUM DCT EGPB |
| Aircraft | SF50/L-SDFGRWY/L |
Departure
| Time | 2026-05-05 19:28 |
|---|---|
| Airport | Vágar Airport (EKVG) |
Arrival
| Time | 2026-05-05 20:33 |
|---|---|
| Airport | Sumburgh Airport (EGPB) |
| Time | Latitude | Longitude | Altitude | Speed | Heading |
|---|---|---|---|---|---|
| 2026-05-05 19:10 | 62.06695 | -7.27935 | 273 ft | 0 kts | 29° |
| 2026-05-05 19:21 | 62.06693 | -7.27937 | 273 ft | 2 kts | 29° |
| 2026-05-05 19:22 | 62.06678 | -7.27955 | 273 ft | 3 kts | 29° |
| 2026-05-05 19:22 | 62.06662 | -7.27974 | 273 ft | 3 kts | 29° |
| 2026-05-05 19:22 | 62.06646 | -7.27992 | 273 ft | 3 kts | 29° |
| 2026-05-05 19:22 | 62.06644 | -7.27995 | 273 ft | 2 kts | 29° |
| 2026-05-05 19:23 | 62.06645 | -7.27994 | 273 ft | 2 kts | 13° |
| 2026-05-05 19:24 | 62.06648 | -7.28066 | 273 ft | 6 kts | 237° |
| 2026-05-05 19:24 | 62.06605 | -7.28086 | 272 ft | 9 kts | 184° |
| 2026-05-05 19:24 | 62.06532 | -7.28118 | 273 ft | 11 kts | 205° |
| 2026-05-05 19:24 | 62.06468 | -7.28140 | 274 ft | 11 kts | 143° |
| 2026-05-05 19:25 | 62.06415 | -7.27946 | 277 ft | 20 kts | 117° |
| 2026-05-05 19:25 | 62.06337 | -7.27628 | 280 ft | 25 kts | 118° |
| 2026-05-05 19:25 | 62.06255 | -7.27301 | 275 ft | 25 kts | 118° |
| 2026-05-05 19:25 | 62.06173 | -7.26970 | 266 ft | 26 kts | 118° |
| 2026-05-05 19:26 | 62.06081 | -7.26601 | 253 ft | 30 kts | 117° |
| 2026-05-05 19:26 | 62.06008 | -7.26312 | 242 ft | 18 kts | 117° |
| 2026-05-05 19:26 | 62.05944 | -7.26094 | 236 ft | 16 kts | 131° |
| 2026-05-05 19:26 | 62.05941 | -7.26064 | 236 ft | 4 kts | 314° |
| 2026-05-05 19:27 | 62.05955 | -7.26096 | 238 ft | 0 kts | 296° |
| 2026-05-05 19:27 | 62.05963 | -7.26127 | 236 ft | 17 kts | 298° |
| 2026-05-05 19:27 | 62.06123 | -7.26765 | 259 ft | 77 kts | 300° |
| 2026-05-05 19:27 | 62.06421 | -7.27955 | 524 ft | 99 kts | 303° |
| 2026-05-05 19:28 | 62.06757 | -7.29388 | 906 ft | 122 kts | 300° |
| 2026-05-05 19:28 | 62.07205 | -7.31162 | 1531 ft | 139 kts | 300° |
| 2026-05-05 19:28 | 62.07619 | -7.33089 | 2138 ft | 150 kts | 288° |
| 2026-05-05 19:28 | 62.07765 | -7.35284 | 2880 ft | 150 kts | 284° |
| 2026-05-05 19:29 | 62.08145 | -7.37308 | 3574 ft | 150 kts | 297° |
| 2026-05-05 19:29 | 62.08546 | -7.39383 | 4296 ft | 151 kts | 292° |
| 2026-05-05 19:29 | 62.08868 | -7.41454 | 5272 ft | 135 kts | 291° |
| 2026-05-05 19:29 | 62.09182 | -7.43491 | 5701 ft | 156 kts | 290° |
| 2026-05-05 19:30 | 62.09477 | -7.45777 | 6312 ft | 162 kts | 285° |
| 2026-05-05 19:30 | 62.09576 | -7.48163 | 7049 ft | 161 kts | 274° |
| 2026-05-05 19:30 | 62.09515 | -7.50562 | 7696 ft | 166 kts | 269° |
| 2026-05-05 19:30 | 62.09285 | -7.52980 | 8413 ft | 166 kts | 258° |
| 2026-05-05 19:31 | 62.08870 | -7.55277 | 9119 ft | 166 kts | 252° |
| 2026-05-05 19:31 | 62.08260 | -7.57424 | 9779 ft | 174 kts | 239° |
| 2026-05-05 19:31 | 62.07472 | -7.59397 | 10404 ft | 176 kts | 233° |
| 2026-05-05 19:31 | 62.06519 | -7.61067 | 11044 ft | 179 kts | 220° |
| 2026-05-05 19:32 | 62.05419 | -7.62487 | 11462 ft | 193 kts | 211° |
| 2026-05-05 19:32 | 62.04129 | -7.63436 | 12054 ft | 196 kts | 200° |
| 2026-05-05 19:32 | 62.02803 | -7.63887 | 12727 ft | 197 kts | 189° |
| 2026-05-05 19:32 | 62.01382 | -7.63755 | 13112 ft | 211 kts | 178° |
| 2026-05-05 19:33 | 61.99957 | -7.62952 | 13733 ft | 213 kts | 165° |
| 2026-05-05 19:33 | 61.98611 | -7.61561 | 14242 ft | 219 kts | 152° |
| 2026-05-05 19:33 | 61.97395 | -7.59531 | 14689 ft | 226 kts | 138° |
| 2026-05-05 19:33 | 61.96392 | -7.56896 | 15099 ft | 233 kts | 123° |
| 2026-05-05 19:34 | 61.95678 | -7.53792 | 15552 ft | 235 kts | 109° |
| 2026-05-05 19:34 | 61.95295 | -7.50432 | 16027 ft | 235 kts | 94° |
| 2026-05-05 19:34 | 61.95161 | -7.46924 | 16366 ft | 242 kts | 91° |
| 2026-05-05 19:35 | 61.94736 | -7.39716 | 17176 ft | 250 kts | 95° |
| 2026-05-05 19:35 | 61.94505 | -7.36022 | 17529 ft | 255 kts | 92° |
| 2026-05-05 19:35 | 61.94361 | -7.32282 | 17995 ft | 254 kts | 90° |
| 2026-05-05 19:35 | 61.94216 | -7.28525 | 18386 ft | 258 kts | 92° |
| 2026-05-05 19:36 | 61.93980 | -7.24711 | 18730 ft | 261 kts | 95° |
| 2026-05-05 19:36 | 61.93747 | -7.20862 | 19055 ft | 264 kts | 92° |
| 2026-05-05 19:36 | 61.93558 | -7.17001 | 19513 ft | 260 kts | 93° |
| 2026-05-05 19:36 | 61.93357 | -7.13169 | 19842 ft | 263 kts | 94° |
| 2026-05-05 19:37 | 61.93142 | -7.09297 | 20179 ft | 265 kts | 94° |
| 2026-05-05 19:37 | 61.92928 | -7.05382 | 20481 ft | 269 kts | 93° |
| 2026-05-05 19:37 | 61.92711 | -7.01426 | 20809 ft | 271 kts | 94° |
| 2026-05-05 19:37 | 61.92490 | -6.97446 | 21116 ft | 273 kts | 94° |
| 2026-05-05 19:38 | 61.92268 | -6.93437 | 21456 ft | 274 kts | 94° |
| 2026-05-05 19:38 | 61.92042 | -6.89416 | 21800 ft | 275 kts | 94° |
| 2026-05-05 19:38 | 61.91817 | -6.85373 | 22133 ft | 276 kts | 93° |
| 2026-05-05 19:38 | 61.91590 | -6.81318 | 22475 ft | 277 kts | 94° |
| 2026-05-05 19:39 | 61.91358 | -6.77241 | 22802 ft | 279 kts | 94° |
| 2026-05-05 19:39 | 61.91127 | -6.73155 | 23151 ft | 279 kts | 93° |
| 2026-05-05 19:39 | 61.90891 | -6.69044 | 23475 ft | 281 kts | 94° |
| 2026-05-05 19:39 | 61.90653 | -6.64920 | 23796 ft | 282 kts | 94° |
| 2026-05-05 19:40 | 61.90350 | -6.60808 | 24073 ft | 284 kts | 104° |
| 2026-05-05 19:40 | 61.89569 | -6.56996 | 24378 ft | 281 kts | 121° |
| 2026-05-05 19:40 | 61.88658 | -6.53325 | 24673 ft | 281 kts | 120° |
| 2026-05-05 19:40 | 61.87772 | -6.49638 | 24983 ft | 281 kts | 120° |
| 2026-05-05 19:41 | 61.86879 | -6.45969 | 25289 ft | 280 kts | 120° |
| 2026-05-05 19:41 | 61.85986 | -6.42325 | 25672 ft | 276 kts | 120° |
| 2026-05-05 19:41 | 61.85110 | -6.38755 | 26057 ft | 272 kts | 121° |
| 2026-05-05 19:41 | 61.84237 | -6.35206 | 26362 ft | 272 kts | 121° |
| 2026-05-05 19:42 | 61.83368 | -6.31656 | 26664 ft | 272 kts | 121° |
| 2026-05-05 19:42 | 61.82494 | -6.28111 | 26979 ft | 271 kts | 121° |
| 2026-05-05 19:42 | 61.81613 | -6.24535 | 27101 ft | 280 kts | 121° |
| 2026-05-05 19:42 | 61.80692 | -6.20817 | 27111 ft | 291 kts | 121° |
| 2026-05-05 19:43 | 61.79741 | -6.16962 | 27114 ft | 300 kts | 121° |
| 2026-05-05 19:43 | 61.78763 | -6.13009 | 27092 ft | 307 kts | 121° |
| 2026-05-05 19:43 | 61.77759 | -6.08971 | 27087 ft | 313 kts | 122° |
| 2026-05-05 19:43 | 61.76734 | -6.04859 | 27107 ft | 320 kts | 122° |
| 2026-05-05 19:44 | 61.75689 | -6.00665 | 27110 ft | 326 kts | 122° |
| 2026-05-05 19:44 | 61.74623 | -5.96395 | 27100 ft | 332 kts | 121° |
| 2026-05-05 19:44 | 61.73532 | -5.92038 | 27099 ft | 339 kts | 121° |
| 2026-05-05 19:44 | 61.72421 | -5.87604 | 27106 ft | 345 kts | 121° |
| 2026-05-05 19:45 | 61.71290 | -5.83099 | 27109 ft | 350 kts | 121° |
| 2026-05-05 19:45 | 61.70142 | -5.78537 | 27108 ft | 354 kts | 121° |
| 2026-05-05 19:45 | 61.68982 | -5.73929 | 27104 ft | 357 kts | 121° |
| 2026-05-05 19:45 | 61.67809 | -5.69290 | 27105 ft | 360 kts | 121° |
| 2026-05-05 19:46 | 61.66627 | -5.64622 | 27091 ft | 362 kts | 121° |
| 2026-05-05 19:46 | 61.65443 | -5.59956 | 27096 ft | 362 kts | 121° |
| 2026-05-05 19:46 | 61.64251 | -5.55267 | 27100 ft | 364 kts | 121° |
| 2026-05-05 19:46 | 61.63054 | -5.50571 | 27098 ft | 365 kts | 122° |
| 2026-05-05 19:47 | 61.61849 | -5.45860 | 27096 ft | 367 kts | 122° |
| 2026-05-05 19:47 | 61.60640 | -5.41141 | 27097 ft | 367 kts | 122° |
| 2026-05-05 19:47 | 61.59429 | -5.36411 | 27088 ft | 367 kts | 122° |
| 2026-05-05 19:47 | 61.58219 | -5.31705 | 27092 ft | 366 kts | 122° |
| 2026-05-05 19:48 | 61.57009 | -5.27017 | 27085 ft | 365 kts | 122° |
| 2026-05-05 19:48 | 61.55804 | -5.22346 | 27081 ft | 364 kts | 122° |
| 2026-05-05 19:48 | 61.54599 | -5.17687 | 27087 ft | 363 kts | 122° |
| 2026-05-05 19:48 | 61.53393 | -5.13037 | 27089 ft | 363 kts | 122° |
| 2026-05-05 19:49 | 61.52183 | -5.08372 | 27092 ft | 365 kts | 122° |
| 2026-05-05 19:49 | 61.51379 | -5.05286 | 27084 ft | 365 kts | 122° |
| 2026-05-05 19:49 | 61.49579 | -4.99309 | 27090 ft | 359 kts | 135° |
| 2026-05-05 19:49 | 61.47848 | -4.95587 | 27094 ft | 355 kts | 143° |
| 2026-05-05 19:50 | 61.46070 | -4.91990 | 27118 ft | 356 kts | 142° |
| 2026-05-05 19:50 | 61.44306 | -4.88371 | 27095 ft | 353 kts | 142° |
| 2026-05-05 19:50 | 61.42566 | -4.84815 | 27085 ft | 349 kts | 142° |
| 2026-05-05 19:50 | 61.40819 | -4.81288 | 27083 ft | 351 kts | 143° |
| 2026-05-05 19:51 | 61.39064 | -4.77740 | 27092 ft | 352 kts | 142° |
| 2026-05-05 19:51 | 61.37310 | -4.74176 | 27094 ft | 353 kts | 142° |
| 2026-05-05 19:51 | 61.35547 | -4.70614 | 27100 ft | 353 kts | 142° |
| 2026-05-05 19:51 | 61.33780 | -4.67052 | 27101 ft | 353 kts | 142° |
| 2026-05-05 19:52 | 61.32014 | -4.63490 | 27097 ft | 353 kts | 142° |
| 2026-05-05 19:52 | 61.30256 | -4.59949 | 27093 ft | 352 kts | 142° |
| 2026-05-05 19:52 | 61.28495 | -4.56419 | 27094 ft | 351 kts | 143° |
| 2026-05-05 19:52 | 61.26741 | -4.52902 | 27094 ft | 350 kts | 143° |
| 2026-05-05 19:53 | 61.24991 | -4.49392 | 27083 ft | 349 kts | 144° |
| 2026-05-05 19:53 | 61.23234 | -4.45890 | 27089 ft | 351 kts | 145° |
| 2026-05-05 19:53 | 61.22065 | -4.43564 | 27082 ft | 353 kts | 145° |
| 2026-05-05 19:53 | 61.20291 | -4.40023 | 27083 ft | 355 kts | 144° |
| 2026-05-05 19:54 | 61.18508 | -4.36475 | 27089 ft | 356 kts | 145° |
| 2026-05-05 19:54 | 61.16710 | -4.32910 | 27090 ft | 358 kts | 145° |
| 2026-05-05 19:54 | 61.14910 | -4.29339 | 27099 ft | 359 kts | 144° |
| 2026-05-05 19:54 | 61.13105 | -4.25765 | 27097 ft | 360 kts | 145° |
| 2026-05-05 19:55 | 61.11294 | -4.22189 | 27097 ft | 361 kts | 145° |
| 2026-05-05 19:55 | 61.09480 | -4.18607 | 27095 ft | 360 kts | 145° |
| 2026-05-05 19:55 | 61.07676 | -4.15049 | 27109 ft | 358 kts | 145° |
| 2026-05-05 19:55 | 61.05875 | -4.11507 | 27091 ft | 356 kts | 145° |
| 2026-05-05 19:56 | 61.04092 | -4.08000 | 27088 ft | 353 kts | 145° |
| 2026-05-05 19:56 | 61.02306 | -4.04511 | 27091 ft | 354 kts | 145° |
| 2026-05-05 19:56 | 61.00517 | -4.01014 | 27091 ft | 355 kts | 145° |
| 2026-05-05 19:56 | 60.98853 | -3.97181 | 27096 ft | 361 kts | 136° |
| 2026-05-05 19:57 | 60.97270 | -3.93161 | 27085 ft | 361 kts | 138° |
| 2026-05-05 19:57 | 60.95659 | -3.89188 | 27101 ft | 362 kts | 139° |
| 2026-05-05 19:57 | 60.94036 | -3.85222 | 27093 ft | 364 kts | 139° |
| 2026-05-05 19:57 | 60.92415 | -3.81199 | 27105 ft | 366 kts | 138° |
| 2026-05-05 19:58 | 60.90791 | -3.77167 | 27102 ft | 367 kts | 138° |
| 2026-05-05 19:58 | 60.89153 | -3.73143 | 27099 ft | 368 kts | 139° |
| 2026-05-05 19:58 | 60.87512 | -3.69115 | 27099 ft | 369 kts | 138° |
| 2026-05-05 19:58 | 60.85867 | -3.65066 | 27102 ft | 369 kts | 138° |
| 2026-05-05 19:59 | 60.84226 | -3.61037 | 27095 ft | 368 kts | 139° |
| 2026-05-05 19:59 | 60.82583 | -3.57024 | 27084 ft | 367 kts | 139° |
| 2026-05-05 19:59 | 60.80943 | -3.53022 | 27085 ft | 366 kts | 139° |
| 2026-05-05 19:59 | 60.79307 | -3.49026 | 27086 ft | 366 kts | 139° |
| 2026-05-05 20:00 | 60.77671 | -3.45045 | 27090 ft | 365 kts | 139° |
| 2026-05-05 20:00 | 60.76040 | -3.41078 | 27101 ft | 365 kts | 139° |
| 2026-05-05 20:00 | 60.74402 | -3.37104 | 27100 ft | 365 kts | 139° |
| 2026-05-05 20:00 | 60.72762 | -3.33143 | 27099 ft | 365 kts | 139° |
| 2026-05-05 20:01 | 60.71121 | -3.29184 | 27101 ft | 365 kts | 139° |
| 2026-05-05 20:01 | 60.69487 | -3.25231 | 27079 ft | 364 kts | 140° |
| 2026-05-05 20:01 | 60.67848 | -3.21289 | 27088 ft | 365 kts | 140° |
| 2026-05-05 20:01 | 60.66199 | -3.17332 | 27090 ft | 366 kts | 140° |
| 2026-05-05 20:02 | 60.64548 | -3.13363 | 27092 ft | 368 kts | 140° |
| 2026-05-05 20:02 | 60.62890 | -3.09389 | 27094 ft | 368 kts | 140° |
| 2026-05-05 20:02 | 60.61227 | -3.05411 | 27093 ft | 369 kts | 140° |
| 2026-05-05 20:02 | 60.59565 | -3.01436 | 27103 ft | 368 kts | 140° |
| 2026-05-05 20:03 | 60.57907 | -2.97482 | 27098 ft | 367 kts | 140° |
| 2026-05-05 20:03 | 60.56248 | -2.93537 | 27097 ft | 366 kts | 140° |
| 2026-05-05 20:03 | 60.54593 | -2.89606 | 27096 ft | 366 kts | 140° |
| 2026-05-05 20:03 | 60.52941 | -2.85681 | 27095 ft | 365 kts | 140° |
| 2026-05-05 20:04 | 60.51289 | -2.81770 | 27092 ft | 364 kts | 140° |
| 2026-05-05 20:04 | 60.49634 | -2.77874 | 27092 ft | 364 kts | 140° |
| 2026-05-05 20:04 | 60.47980 | -2.73976 | 27100 ft | 365 kts | 140° |
| 2026-05-05 20:04 | 60.46323 | -2.70067 | 27102 ft | 366 kts | 140° |
| 2026-05-05 20:05 | 60.44658 | -2.66150 | 27105 ft | 367 kts | 140° |
| 2026-05-05 20:05 | 60.42988 | -2.62231 | 27030 ft | 366 kts | 140° |
| 2026-05-05 20:05 | 60.41339 | -2.58363 | 27084 ft | 361 kts | 140° |
| 2026-05-05 20:05 | 60.39695 | -2.54522 | 27087 ft | 361 kts | 140° |
| 2026-05-05 20:06 | 60.38051 | -2.50687 | 27087 ft | 362 kts | 140° |
| 2026-05-05 20:06 | 60.36404 | -2.46843 | 27096 ft | 362 kts | 140° |
| 2026-05-05 20:06 | 60.34754 | -2.43001 | 27098 ft | 362 kts | 140° |
| 2026-05-05 20:06 | 60.33101 | -2.39162 | 27071 ft | 363 kts | 140° |
| 2026-05-05 20:07 | 60.31437 | -2.35307 | 26686 ft | 364 kts | 140° |
| 2026-05-05 20:07 | 60.29794 | -2.31485 | 26219 ft | 358 kts | 140° |
| 2026-05-05 20:07 | 60.28171 | -2.27729 | 25758 ft | 353 kts | 140° |
| 2026-05-05 20:07 | 60.26546 | -2.24003 | 25302 ft | 355 kts | 140° |
| 2026-05-05 20:08 | 60.24908 | -2.20240 | 24835 ft | 359 kts | 140° |
| 2026-05-05 20:08 | 60.23258 | -2.16431 | 24359 ft | 362 kts | 139° |
| 2026-05-05 20:08 | 60.21601 | -2.12619 | 23875 ft | 362 kts | 139° |
| 2026-05-05 20:08 | 60.19940 | -2.08814 | 23359 ft | 361 kts | 139° |
| 2026-05-05 20:09 | 60.18293 | -2.05042 | 22869 ft | 358 kts | 139° |
| 2026-05-05 20:09 | 60.16647 | -2.01283 | 22391 ft | 360 kts | 139° |
| 2026-05-05 20:09 | 60.14990 | -1.97512 | 21899 ft | 359 kts | 138° |
| 2026-05-05 20:09 | 60.13350 | -1.93765 | 21440 ft | 356 kts | 138° |
| 2026-05-05 20:10 | 60.11711 | -1.90036 | 20975 ft | 357 kts | 138° |
| 2026-05-05 20:10 | 60.10065 | -1.86309 | 20504 ft | 357 kts | 137° |
| 2026-05-05 20:10 | 60.08419 | -1.82574 | 20038 ft | 358 kts | 137° |
| 2026-05-05 20:10 | 60.06772 | -1.78841 | 19562 ft | 358 kts | 137° |
| 2026-05-05 20:11 | 60.05118 | -1.75108 | 19092 ft | 358 kts | 137° |
| 2026-05-05 20:11 | 60.03469 | -1.71388 | 18622 ft | 357 kts | 137° |
| 2026-05-05 20:11 | 60.01817 | -1.67668 | 18124 ft | 357 kts | 137° |
| 2026-05-05 20:11 | 60.00175 | -1.63979 | 17647 ft | 353 kts | 136° |
| 2026-05-05 20:12 | 59.98545 | -1.60319 | 17222 ft | 352 kts | 136° |
| 2026-05-05 20:12 | 59.96914 | -1.56668 | 16793 ft | 350 kts | 136° |
| 2026-05-05 20:12 | 59.95450 | -1.52826 | 16355 ft | 348 kts | 125° |
| 2026-05-05 20:12 | 59.94209 | -1.48753 | 15663 ft | 330 kts | 124° |
| 2026-05-05 20:13 | 59.93042 | -1.45018 | 14982 ft | 307 kts | 126° |
| 2026-05-05 20:13 | 59.91930 | -1.41537 | 14319 ft | 289 kts | 125° |
| 2026-05-05 20:13 | 59.90890 | -1.38233 | 13648 ft | 275 kts | 124° |
| 2026-05-05 20:13 | 59.89889 | -1.35036 | 12919 ft | 269 kts | 124° |
| 2026-05-05 20:14 | 59.88895 | -1.31891 | 12214 ft | 267 kts | 124° |
| 2026-05-05 20:14 | 59.87919 | -1.28775 | 11508 ft | 262 kts | 122° |
| 2026-05-05 20:14 | 59.87355 | -1.25378 | 10804 ft | 260 kts | 92° |
| 2026-05-05 20:14 | 59.87810 | -1.22010 | 10124 ft | 250 kts | 54° |
| 2026-05-05 20:15 | 59.89093 | -1.19895 | 9412 ft | 235 kts | 20° |
| 2026-05-05 20:15 | 59.90649 | -1.19387 | 8690 ft | 223 kts | 351° |
| 2026-05-05 20:15 | 59.92069 | -1.20392 | 7976 ft | 215 kts | 324° |
| 2026-05-05 20:15 | 59.93062 | -1.22535 | 7312 ft | 210 kts | 302° |
| 2026-05-05 20:16 | 59.93801 | -1.25028 | 6653 ft | 208 kts | 300° |
| 2026-05-05 20:16 | 59.94553 | -1.27482 | 5962 ft | 207 kts | 302° |
| 2026-05-05 20:16 | 59.95322 | -1.29903 | 5264 ft | 206 kts | 302° |
| 2026-05-05 20:16 | 59.95813 | -1.32533 | 4559 ft | 208 kts | 274° |
| 2026-05-05 20:17 | 59.95315 | -1.35205 | 3847 ft | 213 kts | 232° |
| 2026-05-05 20:17 | 59.94014 | -1.36568 | 3146 ft | 219 kts | 191° |
| 2026-05-05 20:17 | 59.92539 | -1.35915 | 2454 ft | 223 kts | 149° |
| 2026-05-05 20:17 | 59.91430 | -1.33906 | 2203 ft | 210 kts | 133° |
| 2026-05-05 20:18 | 59.90410 | -1.31786 | 2213 ft | 206 kts | 134° |
| 2026-05-05 20:18 | 59.89454 | -1.29806 | 2193 ft | 192 kts | 133° |
| 2026-05-05 20:18 | 59.88614 | -1.27755 | 2198 ft | 192 kts | 122° |
| 2026-05-05 20:18 | 59.88035 | -1.25345 | 2195 ft | 194 kts | 106° |
| 2026-05-05 20:19 | 59.87867 | -1.22704 | 2195 ft | 192 kts | 86° |
| 2026-05-05 20:19 | 59.87933 | -1.20047 | 2200 ft | 192 kts | 84° |
| 2026-05-05 20:19 | 59.87972 | -1.17408 | 2197 ft | 190 kts | 86° |
| 2026-05-05 20:19 | 59.87988 | -1.14784 | 2197 ft | 189 kts | 86° |
| 2026-05-05 20:20 | 59.88007 | -1.12154 | 2201 ft | 191 kts | 85° |
| 2026-05-05 20:20 | 59.88029 | -1.09506 | 2197 ft | 192 kts | 86° |
| 2026-05-05 20:20 | 59.88047 | -1.06848 | 2200 ft | 191 kts | 86° |
| 2026-05-05 20:20 | 59.88065 | -1.04201 | 2197 ft | 191 kts | 86° |
| 2026-05-05 20:21 | 59.88083 | -1.01547 | 2192 ft | 192 kts | 86° |
| 2026-05-05 20:21 | 59.88101 | -0.98892 | 2194 ft | 192 kts | 86° |
| 2026-05-05 20:21 | 59.88119 | -0.96232 | 2192 ft | 192 kts | 86° |
| 2026-05-05 20:21 | 59.88135 | -0.93585 | 2185 ft | 191 kts | 85° |
| 2026-05-05 20:22 | 59.88150 | -0.90943 | 2178 ft | 191 kts | 86° |
| 2026-05-05 20:22 | 59.88165 | -0.88306 | 2178 ft | 190 kts | 85° |
| 2026-05-05 20:22 | 59.88180 | -0.85669 | 2180 ft | 190 kts | 86° |
| 2026-05-05 20:22 | 59.88194 | -0.83033 | 2181 ft | 191 kts | 86° |
| 2026-05-05 20:23 | 59.88208 | -0.80384 | 2184 ft | 191 kts | 86° |
| 2026-05-05 20:23 | 59.88229 | -0.77748 | 2177 ft | 189 kts | 82° |
| 2026-05-05 20:23 | 59.88782 | -0.75535 | 2171 ft | 174 kts | 33° |
| 2026-05-05 20:23 | 59.89821 | -0.75149 | 2177 ft | 143 kts | 338° |
| 2026-05-05 20:24 | 59.90680 | -0.75935 | 2179 ft | 130 kts | 328° |
| 2026-05-05 20:24 | 59.91331 | -0.77032 | 2182 ft | 124 kts | 312° |
| 2026-05-05 20:24 | 59.91831 | -0.78540 | 2192 ft | 135 kts | 296° |
| 2026-05-05 20:24 | 59.92011 | -0.80361 | 2192 ft | 136 kts | 271° |
| 2026-05-05 20:25 | 59.91821 | -0.82214 | 2185 ft | 137 kts | 260° |
| 2026-05-05 20:25 | 59.91629 | -0.84072 | 2186 ft | 137 kts | 264° |
| 2026-05-05 20:25 | 59.91472 | -0.85949 | 2187 ft | 137 kts | 264° |
| 2026-05-05 20:25 | 59.91325 | -0.87831 | 2192 ft | 137 kts | 265° |
| 2026-05-05 20:26 | 59.91179 | -0.89702 | 2188 ft | 136 kts | 265° |
| 2026-05-05 20:26 | 59.91036 | -0.91563 | 2189 ft | 135 kts | 266° |
| 2026-05-05 20:26 | 59.90896 | -0.93410 | 2187 ft | 136 kts | 266° |
| 2026-05-05 20:26 | 59.90753 | -0.95295 | 2197 ft | 139 kts | 265° |
| 2026-05-05 20:27 | 59.90607 | -0.97177 | 2200 ft | 137 kts | 265° |
| 2026-05-05 20:27 | 59.90453 | -0.99057 | 2201 ft | 139 kts | 263° |
| 2026-05-05 20:27 | 59.90283 | -1.00920 | 2206 ft | 129 kts | 265° |
| 2026-05-05 20:27 | 59.90147 | -1.02559 | 2187 ft | 112 kts | 267° |
| 2026-05-05 20:28 | 59.90040 | -1.04044 | 2191 ft | 108 kts | 266° |
| 2026-05-05 20:28 | 59.89927 | -1.05515 | 2193 ft | 108 kts | 266° |
| 2026-05-05 20:28 | 59.89810 | -1.06988 | 2197 ft | 108 kts | 266° |
| 2026-05-05 20:28 | 59.89699 | -1.08455 | 2133 ft | 104 kts | 266° |
| 2026-05-05 20:29 | 59.89592 | -1.09813 | 1992 ft | 95 kts | 267° |
| 2026-05-05 20:29 | 59.89495 | -1.11070 | 1857 ft | 90 kts | 266° |
| 2026-05-05 20:29 | 59.89403 | -1.12290 | 1739 ft | 89 kts | 267° |
| 2026-05-05 20:29 | 59.89309 | -1.13509 | 1618 ft | 90 kts | 266° |
| 2026-05-05 20:30 | 59.89215 | -1.14746 | 1493 ft | 91 kts | 266° |
| 2026-05-05 20:30 | 59.89118 | -1.15993 | 1359 ft | 91 kts | 267° |
| 2026-05-05 20:30 | 59.89022 | -1.17247 | 1229 ft | 92 kts | 266° |
| 2026-05-05 20:30 | 59.88916 | -1.18463 | 1103 ft | 88 kts | 267° |
| 2026-05-05 20:31 | 59.88832 | -1.19632 | 956 ft | 83 kts | 268° |
| 2026-05-05 20:31 | 59.88749 | -1.20787 | 851 ft | 86 kts | 268° |
| 2026-05-05 20:31 | 59.88659 | -1.22015 | 744 ft | 93 kts | 267° |
| 2026-05-05 20:31 | 59.88552 | -1.23304 | 617 ft | 99 kts | 265° |
| 2026-05-05 20:32 | 59.88454 | -1.24586 | 472 ft | 91 kts | 261° |
| 2026-05-05 20:32 | 59.88337 | -1.25815 | 347 ft | 95 kts | 267° |
| 2026-05-05 20:32 | 59.88275 | -1.27119 | 187 ft | 93 kts | 269° |
| 2026-05-05 20:32 | 59.88204 | -1.28397 | 58 ft | 92 kts | 267° |
| 2026-05-05 20:33 | 59.88144 | -1.29497 | 41 ft | 66 kts | 263° |
| 2026-05-05 20:33 | 59.88087 | -1.29885 | 40 ft | 16 kts | 160° |
| 2026-05-05 20:33 | 59.87980 | -1.29743 | 37 ft | 20 kts | 143° |
| 2026-05-05 20:33 | 59.87879 | -1.29569 | 37 ft | 15 kts | 92° |
| 2026-05-05 20:34 | 59.87914 | -1.29426 | 37 ft | 11 kts | 128° |
| 2026-05-05 20:34 | 59.87858 | -1.29341 | 37 ft | 13 kts | 143° |
| 2026-05-05 20:34 | 59.87781 | -1.29227 | 37 ft | 15 kts | 144° |
| 2026-05-05 20:34 | 59.87730 | -1.29150 | 37 ft | 13 kts | 143° |
| 2026-05-05 20:35 | 59.87671 | -1.29062 | 37 ft | 11 kts | 142° |
| 2026-05-05 20:35 | 59.87681 | -1.28962 | 37 ft | 7 kts | 54° |
| 2026-05-05 20:35 | 59.87697 | -1.28918 | 37 ft | 0 kts | 53° |